sensor_id;sensor_type;location;lat;lon;timestamp;pressure;altitude;pressure_sealevel;temperature;humidity
32733;BME280;11867;51.198;11.966;2022-10-17T00:00:40;101008.44;;;15.64;100.00
32733;BME280;11867;51.198;11.966;2022-10-17T00:05:44;101013.88;;;15.69;99.04
32733;BME280;11867;51.198;11.966;2022-10-17T00:10:55;101013.97;;;15.02;100.00
32733;BME280;11867;51.198;11.966;2022-10-17T00:15:58;101027.56;;;15.12;100.00
32733;BME280;11867;51.198;11.966;2022-10-17T00:21:01;101020.56;;;15.44;99.63
32733;BME280;11867;51.198;11.966;2022-10-17T00:26:05;101023.31;;;15.44;98.88
32733;BME280;11867;51.198;11.966;2022-10-17T00:31:08;101023.38;;;15.39;99.90
32733;BME280;11867;51.198;11.966;2022-10-17T00:36:13;101025.84;;;15.41;98.87
32733;BME280;11867;51.198;11.966;2022-10-17T00:41:19;101024.81;;;15.12;100.00
32733;BME280;11867;51.198;11.966;2022-10-17T00:46:23;101025.22;;;15.25;99.08
32733;BME280;11867;51.198;11.966;2022-10-17T00:51:29;101023.66;;;15.38;98.21
32733;BME280;11867;51.198;11.966;2022-10-17T00:56:35;101023.50;;;14.86;100.00
32733;BME280;11867;51.198;11.966;2022-10-17T01:01:42;101017.38;;;14.94;99.55
32733;BME280;11867;51.198;11.966;2022-10-17T01:06:50;101019.06;;;14.90;99.22
32733;BME280;11867;51.198;11.966;2022-10-17T01:12:00;101020.00;;;15.04;98.58
32733;BME280;11867;51.198;11.966;2022-10-17T01:17:11;101017.59;;;14.98;98.42
32733;BME280;11867;51.198;11.966;2022-10-17T01:22:17;101017.38;;;14.94;98.02
32733;BME280;11867;51.198;11.966;2022-10-17T01:27:35;101017.75;;;15.06;97.15
32733;BME280;11867;51.198;11.966;2022-10-17T01:32:44;101016.44;;;14.80;97.76
32733;BME280;11867;51.198;11.966;2022-10-17T01:37:52;101019.81;;;14.71;99.67
32733;BME280;11867;51.198;11.966;2022-10-17T01:43:01;101007.97;;;14.47;100.00
32733;BME280;11867;51.198;11.966;2022-10-17T01:48:12;101016.97;;;14.58;100.00
32733;BME280;11867;51.198;11.966;2022-10-17T01:53:20;101029.34;;;14.79;99.47
32733;BME280;11867;51.198;11.966;2022-10-17T01:58:27;101013.94;;;13.66;100.00
32733;BME280;11867;51.198;11.966;2022-10-17T02:03:34;101009.91;;;14.46;100.00
32733;BME280;11867;51.198;11.966;2022-10-17T02:08:41;101003.88;;;14.73;100.00
32733;BME280;11867;51.198;11.966;2022-10-17T02:13:57;101004.66;;;14.79;99.93
32733;BME280;11867;51.198;11.966;2022-10-17T02:19:22;101000.63;;;14.18;100.00
32733;BME280;11867;51.198;11.966;2022-10-17T02:24:31;101012.19;;;14.68;100.00
32733;BME280;11867;51.198;11.966;2022-10-17T02:29:42;101012.22;;;14.63;100.00
32733;BME280;11867;51.198;11.966;2022-10-17T02:34:49;101011.41;;;14.63;99.74
32733;BME280;11867;51.198;11.966;2022-10-17T02:39:55;101013.41;;;14.57;98.99
32733;BME280;11867;51.198;11.966;2022-10-17T02:45:00;101013.00;;;14.40;100.00
32733;BME280;11867;51.198;11.966;2022-10-17T02:50:08;101020.41;;;13.76;100.00
32733;BME280;11867;51.198;11.966;2022-10-17T02:55:15;101020.38;;;14.15;100.00
32733;BME280;11867;51.198;11.966;2022-10-17T03:00:22;101016.78;;;13.85;100.00
32733;BME280;11867;51.198;11.966;2022-10-17T03:05:28;101026.25;;;14.32;100.00
32733;BME280;11867;51.198;11.966;2022-10-17T03:10:31;101028.50;;;14.25;100.00
32733;BME280;11867;51.198;11.966;2022-10-17T03:15:33;101028.06;;;14.42;100.00
32733;BME280;11867;51.198;11.966;2022-10-17T03:20:37;101029.13;;;14.46;100.00
32733;BME280;11867;51.198;11.966;2022-10-17T03:25:40;101037.50;;;14.31;100.00
32733;BME280;11867;51.198;11.966;2022-10-17T03:30:43;101031.59;;;13.84;100.00
32733;BME280;11867;51.198;11.966;2022-10-17T03:35:47;101034.16;;;14.10;100.00
32733;BME280;11867;51.198;11.966;2022-10-17T03:40:54;101039.03;;;14.13;100.00
32733;BME280;11867;51.198;11.966;2022-10-17T03:45:58;101036.97;;;14.00;100.00
32733;BME280;11867;51.198;11.966;2022-10-17T03:51:04;101040.47;;;13.71;100.00
32733;BME280;11867;51.198;11.966;2022-10-17T03:56:08;101033.47;;;14.23;100.00
32733;BME280;11867;51.198;11.966;2022-10-17T04:01:12;101031.34;;;14.15;100.00
32733;BME280;11867;51.198;11.966;2022-10-17T04:06:17;101042.22;;;14.54;100.00
32733;BME280;11867;51.198;11.966;2022-10-17T04:11:20;101046.53;;;14.37;100.00
32733;BME280;11867;51.198;11.966;2022-10-17T04:16:23;101037.16;;;14.38;100.00
32733;BME280;11867;51.198;11.966;2022-10-17T04:21:28;101045.25;;;14.53;100.00
32733;BME280;11867;51.198;11.966;2022-10-17T04:26:31;101038.75;;;14.44;100.00
32733;BME280;11867;51.198;11.966;2022-10-17T04:31:33;101052.31;;;14.64;100.00
32733;BME280;11867;51.198;11.966;2022-10-17T04:36:37;101045.91;;;14.74;100.00
32733;BME280;11867;51.198;11.966;2022-10-17T04:41:40;101047.53;;;14.75;100.00
32733;BME280;11867;51.198;11.966;2022-10-17T04:46:42;101043.97;;;14.75;100.00
32733;BME280;11867;51.198;11.966;2022-10-17T04:51:46;101046.09;;;14.78;99.98
32733;BME280;11867;51.198;11.966;2022-10-17T04:56:49;101058.16;;;14.82;98.75
32733;BME280;11867;51.198;11.966;2022-10-17T05:01:52;101063.69;;;14.77;97.84
32733;BME280;11867;51.198;11.966;2022-10-17T05:06:56;101053.25;;;14.79;97.67
32733;BME280;11867;51.198;11.966;2022-10-17T05:11:58;101061.69;;;14.53;98.19
32733;BME280;11867;51.198;11.966;2022-10-17T05:17:01;101065.03;;;14.50;97.95
32733;BME280;11867;51.198;11.966;2022-10-17T05:22:05;101056.22;;;14.24;98.64
32733;BME280;11867;51.198;11.966;2022-10-17T05:27:08;101066.56;;;14.32;97.98
32733;BME280;11867;51.198;11.966;2022-10-17T05:32:10;101072.06;;;14.32;97.52
32733;BME280;11867;51.198;11.966;2022-10-17T05:37:14;101068.78;;;14.30;97.36
32733;BME280;11867;51.198;11.966;2022-10-17T05:42:17;101067.50;;;14.22;97.54
32733;BME280;11867;51.198;11.966;2022-10-17T05:47:20;101064.06;;;14.36;97.36
32733;BME280;11867;51.198;11.966;2022-10-17T05:52:24;101069.84;;;14.34;97.20
32733;BME280;11867;51.198;11.966;2022-10-17T05:57:26;101079.63;;;14.16;98.30
32733;BME280;11867;51.198;11.966;2022-10-17T06:02:29;101087.78;;;14.21;99.59
32733;BME280;11867;51.198;11.966;2022-10-17T06:07:37;101101.91;;;14.39;98.97
32733;BME280;11867;51.198;11.966;2022-10-17T06:12:40;101098.78;;;14.56;98.87
32733;BME280;11867;51.198;11.966;2022-10-17T06:17:42;101117.78;;;14.42;100.00
32733;BME280;11867;51.198;11.966;2022-10-17T06:22:46;101114.28;;;14.70;99.47
32733;BME280;11867;51.198;11.966;2022-10-17T06:27:49;101115.06;;;14.76;98.59
32733;BME280;11867;51.198;11.966;2022-10-17T06:32:56;101125.06;;;14.62;100.00
32733;BME280;11867;51.198;11.966;2022-10-17T06:38:02;101123.75;;;14.83;100.00
32733;BME280;11867;51.198;11.966;2022-10-17T06:43:05;101131.88;;;14.93;99.69
32733;BME280;11867;51.198;11.966;2022-10-17T06:48:07;101128.00;;;15.24;98.25
32733;BME280;11867;51.198;11.966;2022-10-17T06:53:11;101128.91;;;15.38;98.56
32733;BME280;11867;51.198;11.966;2022-10-17T06:58:14;101129.50;;;15.78;97.68
32733;BME280;11867;51.198;11.966;2022-10-17T07:03:17;101131.69;;;16.00;96.63
32733;BME280;11867;51.198;11.966;2022-10-17T07:08:21;101136.03;;;16.20;96.75
32733;BME280;11867;51.198;11.966;2022-10-17T07:13:23;101147.72;;;16.31;95.87
32733;BME280;11867;51.198;11.966;2022-10-17T07:18:26;101152.91;;;16.32;97.26
32733;BME280;11867;51.198;11.966;2022-10-17T07:23:30;101157.91;;;16.63;93.87
32733;BME280;11867;51.198;11.966;2022-10-17T07:28:35;101162.13;;;16.42;95.31
32733;BME280;11867;51.198;11.966;2022-10-17T07:33:38;101162.66;;;16.06;99.74
32733;BME280;11867;51.198;11.966;2022-10-17T07:38:43;101163.78;;;16.24;98.21
32733;BME280;11867;51.198;11.966;2022-10-17T07:43:46;101169.13;;;16.67;96.67
32733;BME280;11867;51.198;11.966;2022-10-17T07:48:48;101160.66;;;16.96;95.32
32733;BME280;11867;51.198;11.966;2022-10-17T07:53:52;101158.94;;;17.28;94.70
32733;BME280;11867;51.198;11.966;2022-10-17T07:58:56;101166.13;;;17.43;95.34
32733;BME280;11867;51.198;11.966;2022-10-17T08:04:01;101169.59;;;17.34;95.71
32733;BME280;11867;51.198;11.966;2022-10-17T08:09:05;101174.06;;;17.44;96.04
32733;BME280;11867;51.198;11.966;2022-10-17T08:14:08;101167.72;;;17.85;94.91
32733;BME280;11867;51.198;11.966;2022-10-17T08:19:11;101175.50;;;17.55;96.57
32733;BME280;11867;51.198;11.966;2022-10-17T08:24:15;101176.38;;;17.79;97.18
32733;BME280;11867;51.198;11.966;2022-10-17T08:29:18;101172.19;;;18.54;91.64
32733;BME280;11867;51.198;11.966;2022-10-17T08:34:22;101170.16;;;18.91;89.62
32733;BME280;11867;51.198;11.966;2022-10-17T08:39:26;101164.97;;;19.29;86.29
32733;BME280;11867;51.198;11.966;2022-10-17T08:44:38;101159.13;;;19.80;84.34
32733;BME280;11867;51.198;11.966;2022-10-17T08:49:51;101161.09;;;20.23;82.61
32733;BME280;11867;51.198;11.966;2022-10-17T08:54:55;101158.00;;;20.33;82.53
32733;BME280;11867;51.198;11.966;2022-10-17T09:00:00;101173.50;;;20.43;80.93
32733;BME280;11867;51.198;11.966;2022-10-17T09:05:23;101172.34;;;20.61;80.09
32733;BME280;11867;51.198;11.966;2022-10-17T09:10:36;101165.78;;;20.74;81.06
32733;BME280;11867;51.198;11.966;2022-10-17T09:15:49;101166.91;;;20.91;82.30
32733;BME280;11867;51.198;11.966;2022-10-17T09:21:00;101158.34;;;21.13;79.06
32733;BME280;11867;51.198;11.966;2022-10-17T09:26:09;101154.97;;;21.38;78.87
32733;BME280;11867;51.198;11.966;2022-10-17T09:31:17;101155.22;;;21.53;77.66
32733;BME280;11867;51.198;11.966;2022-10-17T09:36:25;101141.41;;;22.16;75.72
32733;BME280;11867;51.198;11.966;2022-10-17T09:41:33;101146.19;;;22.49;74.27
32733;BME280;11867;51.198;11.966;2022-10-17T09:46:58;101166.06;;;22.72;72.30
32733;BME280;11867;51.198;11.966;2022-10-17T09:52:04;101164.78;;;23.28;71.57
32733;BME280;11867;51.198;11.966;2022-10-17T09:57:10;101151.75;;;23.69;70.39
32733;BME280;11867;51.198;11.966;2022-10-17T10:02:17;101154.06;;;24.32;67.23
32733;BME280;11867;51.198;11.966;2022-10-17T10:07:20;101143.34;;;25.38;64.40
32733;BME280;11867;51.198;11.966;2022-10-17T10:12:32;101152.53;;;27.37;58.18
32733;BME280;11867;51.198;11.966;2022-10-17T10:17:37;101152.25;;;30.33;52.20
32733;BME280;11867;51.198;11.966;2022-10-17T10:22:42;101143.56;;;32.48;48.26
32733;BME280;11867;51.198;11.966;2022-10-17T10:27:46;101137.94;;;32.45;47.77
32733;BME280;11867;51.198;11.966;2022-10-17T10:32:49;101139.13;;;31.48;47.86
32733;BME280;11867;51.198;11.966;2022-10-17T10:37:54;101133.03;;;32.60;46.71
32733;BME280;11867;51.198;11.966;2022-10-17T10:42:59;101130.34;;;33.84;46.26
32733;BME280;11867;51.198;11.966;2022-10-17T10:48:18;101127.91;;;32.40;45.68
32733;BME280;11867;51.198;11.966;2022-10-17T10:53:31;101129.13;;;34.97;41.84
32733;BME280;11867;51.198;11.966;2022-10-17T10:58:45;101122.75;;;32.21;45.76
32733;BME280;11867;51.198;11.966;2022-10-17T11:03:56;101120.91;;;33.56;45.06
32733;BME280;11867;51.198;11.966;2022-10-17T11:09:11;101117.22;;;33.97;43.82
32733;BME280;11867;51.198;11.966;2022-10-17T11:14:19;101119.69;;;34.26;43.08
32733;BME280;11867;51.198;11.966;2022-10-17T11:19:30;101115.47;;;35.60;41.31
32733;BME280;11867;51.198;11.966;2022-10-17T11:24:39;101119.75;;;34.50;42.79
32733;BME280;11867;51.198;11.966;2022-10-17T11:29:46;101115.69;;;35.29;40.67
32733;BME280;11867;51.198;11.966;2022-10-17T11:34:51;101109.13;;;34.30;42.38
32733;BME280;11867;51.198;11.966;2022-10-17T11:40:02;101103.31;;;37.05;39.59
32733;BME280;11867;51.198;11.966;2022-10-17T11:45:10;101102.84;;;38.10;37.26
32733;BME280;11867;51.198;11.966;2022-10-17T11:50:20;101111.59;;;33.60;41.64
32733;BME280;11867;51.198;11.966;2022-10-17T11:55:44;101108.06;;;32.58;42.28
32733;BME280;11867;51.198;11.966;2022-10-17T12:00:55;101101.25;;;32.48;42.64
32733;BME280;11867;51.198;11.966;2022-10-17T12:06:06;101118.38;;;34.34;39.97
32733;BME280;11867;51.198;11.966;2022-10-17T12:11:18;101093.63;;;35.16;40.46
32733;BME280;11867;51.198;11.966;2022-10-17T12:16:42;101091.69;;;35.10;41.06
32733;BME280;11867;51.198;11.966;2022-10-17T12:21:53;101078.97;;;37.04;38.36
32733;BME280;11867;51.198;11.966;2022-10-17T12:26:56;101086.44;;;39.48;35.06
32733;BME280;11867;51.198;11.966;2022-10-17T12:32:10;101092.53;;;39.03;35.71
32733;BME280;11867;51.198;11.966;2022-10-17T12:37:13;101090.34;;;39.07;35.33
32733;BME280;11867;51.198;11.966;2022-10-17T12:42:31;101089.56;;;40.57;34.17
32733;BME280;11867;51.198;11.966;2022-10-17T12:47:37;101093.03;;;41.48;32.93
32733;BME280;11867;51.198;11.966;2022-10-17T12:53:02;101088.97;;;40.71;33.70
32733;BME280;11867;51.198;11.966;2022-10-17T12:58:12;101083.50;;;40.05;33.62
32733;BME280;11867;51.198;11.966;2022-10-17T13:03:19;101073.16;;;40.39;34.42
32733;BME280;11867;51.198;11.966;2022-10-17T13:08:24;101079.81;;;41.78;32.74
32733;BME280;11867;51.198;11.966;2022-10-17T13:13:36;101074.09;;;41.13;33.00
32733;BME280;11867;51.198;11.966;2022-10-17T13:18:41;101071.84;;;40.81;33.09
32733;BME280;11867;51.198;11.966;2022-10-17T13:23:44;101073.94;;;41.54;33.43
32733;BME280;11867;51.198;11.966;2022-10-17T13:29:00;101081.50;;;42.03;32.92
32733;BME280;11867;51.198;11.966;2022-10-17T13:34:12;101089.34;;;38.88;34.59
32733;BME280;11867;51.198;11.966;2022-10-17T13:39:18;101084.44;;;40.83;33.77
32733;BME280;11867;51.198;11.966;2022-10-17T13:44:42;101087.75;;;40.82;33.50
32733;BME280;11867;51.198;11.966;2022-10-17T13:49:46;101082.72;;;41.60;32.68
32733;BME280;11867;51.198;11.966;2022-10-17T13:54:55;101081.44;;;41.33;33.57
32733;BME280;11867;51.198;11.966;2022-10-17T14:00:16;101096.28;;;40.72;32.96
32733;BME280;11867;51.198;11.966;2022-10-17T14:05:21;101092.22;;;40.92;32.22
32733;BME280;11867;51.198;11.966;2022-10-17T14:10:26;101088.09;;;41.48;32.25
32733;BME280;11867;51.198;11.966;2022-10-17T14:15:34;101095.25;;;40.17;33.15
32733;BME280;11867;51.198;11.966;2022-10-17T14:20:38;101103.94;;;38.90;34.97
32733;BME280;11867;51.198;11.966;2022-10-17T14:26:12;101087.94;;;39.18;33.84
32733;BME280;11867;51.198;11.966;2022-10-17T14:31:24;101098.88;;;38.72;34.43
32733;BME280;11867;51.198;11.966;2022-10-17T14:36:33;101099.22;;;39.22;33.81
32733;BME280;11867;51.198;11.966;2022-10-17T14:41:37;101102.94;;;37.35;35.83
32733;BME280;11867;51.198;11.966;2022-10-17T14:46:46;101100.44;;;35.63;37.10
32733;BME280;11867;51.198;11.966;2022-10-17T14:52:11;101100.44;;;31.42;42.62
32733;BME280;11867;51.198;11.966;2022-10-17T14:57:22;101105.59;;;30.25;45.14
32733;BME280;11867;51.198;11.966;2022-10-17T15:02:28;101103.22;;;29.53;47.11
32733;BME280;11867;51.198;11.966;2022-10-17T15:07:32;101100.13;;;29.10;47.09
32733;BME280;11867;51.198;11.966;2022-10-17T15:12:36;101109.91;;;28.83;48.31
32733;BME280;11867;51.198;11.966;2022-10-17T15:17:39;101108.53;;;28.62;49.06
32733;BME280;11867;51.198;11.966;2022-10-17T15:22:42;101111.84;;;28.37;49.49
32733;BME280;11867;51.198;11.966;2022-10-17T15:27:46;101110.72;;;28.46;49.50
32733;BME280;11867;51.198;11.966;2022-10-17T15:32:49;101106.81;;;28.16;50.30
32733;BME280;11867;51.198;11.966;2022-10-17T15:37:52;101106.97;;;27.40;51.74
32733;BME280;11867;51.198;11.966;2022-10-17T15:42:56;101119.38;;;26.93;54.21
32733;BME280;11867;51.198;11.966;2022-10-17T15:48:03;101119.03;;;26.71;56.37
32733;BME280;11867;51.198;11.966;2022-10-17T15:53:10;101109.81;;;26.28;58.14
32733;BME280;11867;51.198;11.966;2022-10-17T15:58:14;101116.16;;;25.70;58.21
32733;BME280;11867;51.198;11.966;2022-10-17T16:03:17;101114.72;;;25.41;60.18
32733;BME280;11867;51.198;11.966;2022-10-17T16:08:25;101120.03;;;25.14;60.56
32733;BME280;11867;51.198;11.966;2022-10-17T16:13:30;101129.09;;;25.11;61.53
32733;BME280;11867;51.198;11.966;2022-10-17T16:18:33;101123.25;;;22.98;69.95
32733;BME280;11867;51.198;11.966;2022-10-17T16:23:35;101128.59;;;22.45;70.85
32733;BME280;11867;51.198;11.966;2022-10-17T16:28:39;101129.91;;;22.60;69.86
32733;BME280;11867;51.198;11.966;2022-10-17T16:33:47;101139.19;;;22.31;71.48
32733;BME280;11867;51.198;11.966;2022-10-17T16:38:50;101139.03;;;21.26;75.68
32733;BME280;11867;51.198;11.966;2022-10-17T16:43:57;101140.78;;;21.69;74.27
32733;BME280;11867;51.198;11.966;2022-10-17T16:49:00;101142.19;;;20.42;79.22
32733;BME280;11867;51.198;11.966;2022-10-17T16:54:02;101167.44;;;20.49;79.02
32733;BME280;11867;51.198;11.966;2022-10-17T16:59:08;101167.88;;;21.33;75.43
32733;BME280;11867;51.198;11.966;2022-10-17T17:04:11;101156.47;;;21.65;74.06
32733;BME280;11867;51.198;11.966;2022-10-17T17:09:14;101175.84;;;21.35;75.24
32733;BME280;11867;51.198;11.966;2022-10-17T17:14:18;101181.44;;;20.44;79.47
32733;BME280;11867;51.198;11.966;2022-10-17T17:19:21;101191.88;;;20.21;80.27
32733;BME280;11867;51.198;11.966;2022-10-17T17:24:23;101204.38;;;19.92;81.77
32733;BME280;11867;51.198;11.966;2022-10-17T17:29:27;101211.09;;;18.44;89.34
32733;BME280;11867;51.198;11.966;2022-10-17T17:34:34;101204.94;;;18.47;90.14
32733;BME280;11867;51.198;11.966;2022-10-17T17:39:37;101210.38;;;19.06;86.27
32733;BME280;11867;51.198;11.966;2022-10-17T17:44:41;101209.19;;;17.80;92.52
32733;BME280;11867;51.198;11.966;2022-10-17T17:49:44;101218.09;;;17.91;91.65
32733;BME280;11867;51.198;11.966;2022-10-17T17:54:47;101223.59;;;17.63;93.77
32733;BME280;11867;51.198;11.966;2022-10-17T17:59:51;101229.25;;;18.59;87.42
32733;BME280;11867;51.198;11.966;2022-10-17T18:04:55;101233.72;;;17.95;90.64
32733;BME280;11867;51.198;11.966;2022-10-17T18:09:58;101238.00;;;17.60;93.48
32733;BME280;11867;51.198;11.966;2022-10-17T18:15:03;101240.78;;;17.13;95.57
32733;BME280;11867;51.198;11.966;2022-10-17T18:20:07;101247.41;;;16.80;97.90
32733;BME280;11867;51.198;11.966;2022-10-17T18:25:10;101248.25;;;16.61;99.44
32733;BME280;11867;51.198;11.966;2022-10-17T18:30:14;101260.25;;;17.64;93.10
32733;BME280;11867;51.198;11.966;2022-10-17T18:35:16;101269.34;;;18.06;89.55
32733;BME280;11867;51.198;11.966;2022-10-17T18:40:19;101272.47;;;16.78;97.88
32733;BME280;11867;51.198;11.966;2022-10-17T18:45:23;101265.09;;;15.98;100.00
32733;BME280;11867;51.198;11.966;2022-10-17T18:50:26;101267.59;;;15.75;100.00
32733;BME280;11867;51.198;11.966;2022-10-17T18:55:29;101276.97;;;15.69;100.00
32733;BME280;11867;51.198;11.966;2022-10-17T19:00:33;101280.50;;;15.74;100.00
32733;BME280;11867;51.198;11.966;2022-10-17T19:05:37;101282.94;;;16.62;98.35
32733;BME280;11867;51.198;11.966;2022-10-17T19:10:41;101284.78;;;16.48;97.75
32733;BME280;11867;51.198;11.966;2022-10-17T19:15:45;101286.00;;;15.99;100.00
32733;BME280;11867;51.198;11.966;2022-10-17T19:20:48;101292.44;;;16.70;96.80
32733;BME280;11867;51.198;11.966;2022-10-17T19:25:52;101295.34;;;17.44;91.45
32733;BME280;11867;51.198;11.966;2022-10-17T19:31:01;101301.66;;;17.91;88.23
32733;BME280;11867;51.198;11.966;2022-10-17T19:36:06;101309.50;;;17.70;89.31
32733;BME280;11867;51.198;11.966;2022-10-17T19:41:10;101313.25;;;17.61;89.68
32733;BME280;11867;51.198;11.966;2022-10-17T19:46:15;101306.81;;;16.48;95.41
32733;BME280;11867;51.198;11.966;2022-10-17T19:51:20;101303.19;;;15.32;100.00
32733;BME280;11867;51.198;11.966;2022-10-17T19:56:26;101293.97;;;15.18;100.00
32733;BME280;11867;51.198;11.966;2022-10-17T20:01:32;101309.00;;;15.25;100.00
32733;BME280;11867;51.198;11.966;2022-10-17T20:06:36;101313.28;;;16.14;100.00
32733;BME280;11867;51.198;11.966;2022-10-17T20:11:39;101321.47;;;17.00;94.27
32733;BME280;11867;51.198;11.966;2022-10-17T20:16:43;101322.38;;;16.96;94.01
32733;BME280;11867;51.198;11.966;2022-10-17T20:21:53;101322.88;;;17.17;92.11
32733;BME280;11867;51.198;11.966;2022-10-17T20:26:55;101326.78;;;17.29;91.09
32733;BME280;11867;51.198;11.966;2022-10-17T20:31:59;101334.00;;;17.58;89.23
32733;BME280;11867;51.198;11.966;2022-10-17T20:37:02;101347.25;;;17.89;87.71
32733;BME280;11867;51.198;11.966;2022-10-17T20:42:05;101350.97;;;17.79;87.88
32733;BME280;11867;51.198;11.966;2022-10-17T20:47:09;101354.53;;;17.66;88.26
32733;BME280;11867;51.198;11.966;2022-10-17T20:52:16;101341.63;;;17.47;88.89
32733;BME280;11867;51.198;11.966;2022-10-17T20:57:19;101342.50;;;16.10;98.08
32733;BME280;11867;51.198;11.966;2022-10-17T21:02:23;101356.09;;;17.06;92.54
32733;BME280;11867;51.198;11.966;2022-10-17T21:07:26;101351.56;;;16.34;97.21
32733;BME280;11867;51.198;11.966;2022-10-17T21:12:29;101356.25;;;16.34;97.36
32733;BME280;11867;51.198;11.966;2022-10-17T21:17:53;101347.06;;;16.44;97.58
32733;BME280;11867;51.198;11.966;2022-10-17T21:22:56;101350.44;;;16.79;95.67
32733;BME280;11867;51.198;11.966;2022-10-17T21:28:00;101348.50;;;16.60;96.74
32733;BME280;11867;51.198;11.966;2022-10-17T21:33:04;101350.06;;;17.37;92.16
32733;BME280;11867;51.198;11.966;2022-10-17T21:38:07;101347.75;;;18.05;88.84
32733;BME280;11867;51.198;11.966;2022-10-17T21:43:10;101347.53;;;18.43;85.47
32733;BME280;11867;51.198;11.966;2022-10-17T21:48:14;101349.19;;;17.88;87.80
32733;BME280;11867;51.198;11.966;2022-10-17T21:53:16;101349.19;;;16.47;98.30
32733;BME280;11867;51.198;11.966;2022-10-17T21:58:19;101353.53;;;15.86;100.00
32733;BME280;11867;51.198;11.966;2022-10-17T22:03:24;101353.84;;;15.79;100.00
32733;BME280;11867;51.198;11.966;2022-10-17T22:08:27;101356.13;;;15.72;100.00
32733;BME280;11867;51.198;11.966;2022-10-17T22:13:30;101364.41;;;15.67;100.00
32733;BME280;11867;51.198;11.966;2022-10-17T22:18:34;101361.13;;;15.94;100.00
32733;BME280;11867;51.198;11.966;2022-10-17T22:23:37;101363.69;;;15.85;100.00
32733;BME280;11867;51.198;11.966;2022-10-17T22:28:40;101364.81;;;16.94;95.45
32733;BME280;11867;51.198;11.966;2022-10-17T22:33:44;101374.78;;;16.47;99.08
32733;BME280;11867;51.198;11.966;2022-10-17T22:38:47;101379.75;;;16.88;94.32
32733;BME280;11867;51.198;11.966;2022-10-17T22:43:49;101383.13;;;16.85;94.34
32733;BME280;11867;51.198;11.966;2022-10-17T22:48:53;101381.84;;;17.15;91.92
32733;BME280;11867;51.198;11.966;2022-10-17T22:53:56;101366.84;;;15.39;100.00
32733;BME280;11867;51.198;11.966;2022-10-17T22:58:58;101362.28;;;14.90;100.00
32733;BME280;11867;51.198;11.966;2022-10-17T23:04:02;101356.50;;;14.91;100.00
32733;BME280;11867;51.198;11.966;2022-10-17T23:09:05;101362.00;;;14.91;100.00
32733;BME280;11867;51.198;11.966;2022-10-17T23:14:07;101358.78;;;14.79;100.00
32733;BME280;11867;51.198;11.966;2022-10-17T23:19:11;101353.41;;;14.64;100.00
32733;BME280;11867;51.198;11.966;2022-10-17T23:24:14;101367.72;;;14.45;100.00
32733;BME280;11867;51.198;11.966;2022-10-17T23:29:16;101371.50;;;14.54;100.00
32733;BME280;11867;51.198;11.966;2022-10-17T23:34:20;101370.69;;;14.54;100.00
32733;BME280;11867;51.198;11.966;2022-10-17T23:39:23;101368.53;;;14.56;100.00
32733;BME280;11867;51.198;11.966;2022-10-17T23:44:25;101368.88;;;14.89;100.00
32733;BME280;11867;51.198;11.966;2022-10-17T23:49:29;101365.03;;;14.90;100.00
32733;BME280;11867;51.198;11.966;2022-10-17T23:54:32;101366.88;;;15.00;100.00
32733;BME280;11867;51.198;11.966;2022-10-17T23:59:35;101359.94;;;15.42;100.00
